createdAt,value
2018-05-08T00:01:20.521Z,11.60
2018-05-08T00:03:55.057Z,11.70
2018-05-08T00:06:29.372Z,11.60
2018-05-08T00:09:03.067Z,11.60
2018-05-08T00:11:36.640Z,11.60
2018-05-08T00:14:10.144Z,11.50
2018-05-08T00:16:43.680Z,11.50
2018-05-08T00:19:17.264Z,11.50
2018-05-08T00:21:50.787Z,11.50
2018-05-08T00:24:25.141Z,11.30
2018-05-08T00:26:58.727Z,11.30
2018-05-08T00:29:32.526Z,11.20
2018-05-08T00:32:06.084Z,11.20
2018-05-08T00:34:39.684Z,11.10
2018-05-08T00:37:13.269Z,11.10
2018-05-08T00:39:46.904Z,11.00
2018-05-08T00:42:20.528Z,11.00
2018-05-08T00:44:54.077Z,11.00
2018-05-08T00:47:27.629Z,11.00
2018-05-08T00:50:01.907Z,10.80
2018-05-08T00:52:35.669Z,10.70
2018-05-08T00:55:09.299Z,10.80
2018-05-08T00:57:42.887Z,10.70
2018-05-08T01:00:16.475Z,10.70
2018-05-08T01:02:50.144Z,10.70
2018-05-08T01:05:23.719Z,10.60
2018-05-08T01:07:57.222Z,10.60
2018-05-08T01:10:31.541Z,10.50
2018-05-08T01:13:05.076Z,10.50
2018-05-08T01:15:38.666Z,10.40
2018-05-08T01:18:12.959Z,10.20
2018-05-08T01:20:46.523Z,10.20
2018-05-08T01:23:20.091Z,10.10
2018-05-08T01:25:54.354Z,9.90
2018-05-08T01:28:27.968Z,9.90
2018-05-08T01:31:01.561Z,10.00
2018-05-08T01:33:35.157Z,10.00
2018-05-08T01:36:08.708Z,9.90
2018-05-08T01:38:42.377Z,10.00
2018-05-08T01:41:15.953Z,10.00
2018-05-08T01:43:50.298Z,10.00
2018-05-08T01:46:24.016Z,9.90
2018-05-08T01:48:57.562Z,10.00
2018-05-08T01:51:31.128Z,9.90
2018-05-08T01:54:05.620Z,10.00
2018-05-08T01:56:39.217Z,9.90
2018-05-08T01:59:12.828Z,10.00
2018-05-08T02:01:46.429Z,9.80
2018-05-08T02:04:19.955Z,9.70
2018-05-08T02:06:53.539Z,9.70
2018-05-08T02:09:27.221Z,9.70
2018-05-08T02:12:00.734Z,9.20
2018-05-08T02:14:34.253Z,8.90
2018-05-08T02:17:08.534Z,9.20
2018-05-08T02:19:42.251Z,9.20
2018-05-08T02:22:15.836Z,9.30
2018-05-08T02:24:49.343Z,9.30
2018-05-08T02:27:23.658Z,9.30
2018-05-08T02:29:57.354Z,9.30
2018-05-08T02:32:30.894Z,9.30
2018-05-08T02:35:04.459Z,9.40
2018-05-08T02:37:38.066Z,9.40
2018-05-08T02:40:11.629Z,9.30
2018-05-08T02:42:45.297Z,9.20
2018-05-08T02:45:18.874Z,9.30
2018-05-08T02:47:52.433Z,9.20
2018-05-08T02:50:26.075Z,9.10
2018-05-08T02:52:59.678Z,9.30
2018-05-08T02:55:33.233Z,9.20
2018-05-08T02:58:06.878Z,9.10
2018-05-08T03:00:40.644Z,9.20
2018-05-08T03:03:14.188Z,9.00
2018-05-08T03:05:47.728Z,8.90
2018-05-08T03:08:21.355Z,8.90
2018-05-08T03:10:55.682Z,9.00
2018-05-08T03:13:29.316Z,9.00
2018-05-08T03:16:02.908Z,8.80
2018-05-08T03:18:36.473Z,8.90
2018-05-08T03:21:10.072Z,8.80
2018-05-08T03:23:43.685Z,8.80
2018-05-08T03:26:17.246Z,8.80
2018-05-08T03:28:50.824Z,8.80
2018-05-08T03:31:25.183Z,8.90
2018-05-08T03:33:58.788Z,8.90
2018-05-08T03:36:32.447Z,8.90
2018-05-08T03:39:06.022Z,8.70
2018-05-08T03:41:39.599Z,8.50
2018-05-08T03:44:13.892Z,8.60
2018-05-08T03:46:47.554Z,8.60
2018-05-08T03:49:21.160Z,8.60
2018-05-08T03:51:54.726Z,8.60
2018-05-08T03:54:28.267Z,8.60
2018-05-08T03:57:01.810Z,8.60
2018-05-08T03:59:35.497Z,8.70
2018-05-08T04:02:20.999Z,8.70
2018-05-08T04:05:06.308Z,8.80
2018-05-08T04:07:51.885Z,8.80
2018-05-08T04:10:25.461Z,8.80
2018-05-08T04:12:59.068Z,8.70
2018-05-08T04:15:32.807Z,8.80
2018-05-08T04:18:06.373Z,8.70
2018-05-08T04:20:40.005Z,8.70
2018-05-08T04:23:13.584Z,8.60
2018-05-08T04:25:47.164Z,8.60
2018-05-08T04:28:20.771Z,8.60
2018-05-08T04:30:54.268Z,8.60
2018-05-08T04:33:27.819Z,8.60
2018-05-08T04:36:02.099Z,8.70
2018-05-08T04:38:36.625Z,8.70
2018-05-08T04:41:10.310Z,8.70
2018-05-08T04:43:43.935Z,8.80
2018-05-08T04:46:17.501Z,8.80
2018-05-08T04:48:51.211Z,8.90
2018-05-08T04:51:24.960Z,9.10
2018-05-08T04:53:58.596Z,8.80
2018-05-08T04:56:32.180Z,8.80
2018-05-08T04:59:06.562Z,9.10
2018-05-08T05:01:40.988Z,9.20
2018-05-08T05:04:15.317Z,9.40
2018-05-08T05:06:49.615Z,9.20
2018-05-08T05:09:23.916Z,9.00
2018-05-08T05:11:57.733Z,9.00
2018-05-08T05:14:31.317Z,9.30
2018-05-08T05:17:04.858Z,9.60
2018-05-08T05:19:38.417Z,9.80
2018-05-08T05:22:12.037Z,9.70
2018-05-08T05:24:45.560Z,9.70
2018-05-08T05:27:19.925Z,9.70
2018-05-08T05:29:54.364Z,9.90
2018-05-08T05:32:28.030Z,9.90
2018-05-08T05:35:01.688Z,10.20
2018-05-08T05:37:35.277Z,10.50
2018-05-08T05:40:08.869Z,10.70
2018-05-08T05:42:42.613Z,10.90
2018-05-08T05:45:17.480Z,11.20
2018-05-08T05:47:51.028Z,11.20
2018-05-08T05:50:24.733Z,11.30
2018-05-08T05:52:58.297Z,11.40
2018-05-08T05:55:31.849Z,11.50
2018-05-08T05:58:05.428Z,11.60
2018-05-08T06:00:38.946Z,11.30
2018-05-08T06:03:13.274Z,11.60
2018-05-08T06:05:46.856Z,11.60
2018-05-08T06:08:20.427Z,11.60
2018-05-08T06:10:54.115Z,11.50
2018-05-08T06:13:27.608Z,11.40
2018-05-08T06:16:01.346Z,11.60
2018-05-08T06:18:34.911Z,11.60
2018-05-08T06:21:09.248Z,12.00
2018-05-08T06:23:43.559Z,11.90
2018-05-08T06:26:17.977Z,11.90
2018-05-08T06:28:51.592Z,11.90
2018-05-08T06:31:25.160Z,12.10
2018-05-08T06:33:58.780Z,12.40
2018-05-08T06:36:32.394Z,12.20
2018-05-08T06:39:06.826Z,12.60
2018-05-08T06:41:41.248Z,12.70
2018-05-08T06:44:15.771Z,13.00
2018-05-08T06:46:49.382Z,12.90
2018-05-08T06:49:23.016Z,13.20
2018-05-08T06:51:56.569Z,13.40
2018-05-08T06:54:30.968Z,13.60
2018-05-08T06:57:04.691Z,13.60
2018-05-08T06:59:38.257Z,13.70
2018-05-08T07:02:11.752Z,13.90
2018-05-08T07:04:45.289Z,14.00
2018-05-08T07:07:18.849Z,14.10
2018-05-08T07:09:52.500Z,14.20
2018-05-08T07:12:26.074Z,14.10
2018-05-08T07:14:59.709Z,14.20
2018-05-08T07:17:34.194Z,14.60
2018-05-08T07:20:07.938Z,14.60
2018-05-08T07:22:41.588Z,14.80
2018-05-08T07:25:15.145Z,15.00
2018-05-08T07:27:48.727Z,15.20
2018-05-08T07:30:22.308Z,15.40
2018-05-08T07:32:56.685Z,15.60
2018-05-08T07:35:31.062Z,15.80
2018-05-08T07:38:04.747Z,15.80
2018-05-08T07:40:38.338Z,15.90
2018-05-08T07:43:12.767Z,16.10
2018-05-08T07:45:46.448Z,16.00
2018-05-08T07:48:20.796Z,16.30
2018-05-08T07:50:54.537Z,16.20
2018-05-08T07:53:28.076Z,16.40
2018-05-08T07:56:01.615Z,16.60
2018-05-08T07:58:35.214Z,16.80
2018-05-08T08:01:08.873Z,16.80
2018-05-08T08:03:42.558Z,17.00
2018-05-08T08:06:16.026Z,17.10
2018-05-08T08:08:49.578Z,17.10
2018-05-08T08:11:23.194Z,17.20
2018-05-08T08:13:56.781Z,17.30
2018-05-08T08:16:30.499Z,17.40
2018-05-08T08:19:04.916Z,17.70
2018-05-08T08:21:38.517Z,17.70
2018-05-08T08:24:12.051Z,17.70
2018-05-08T08:26:46.340Z,17.90
2018-05-08T08:29:20.009Z,17.90
2018-05-08T08:31:53.577Z,18.00
2018-05-08T08:34:27.109Z,18.10
2018-05-08T08:37:00.658Z,18.20
2018-05-08T08:39:34.241Z,18.30
2018-05-08T08:42:07.766Z,18.40
2018-05-08T08:44:41.343Z,18.50
2018-05-08T08:47:14.950Z,18.60
2018-05-08T08:49:48.524Z,18.70
2018-05-08T08:52:22.074Z,18.70
2018-05-08T08:54:55.595Z,18.80
2018-05-08T08:57:29.117Z,18.90
2018-05-08T09:00:03.473Z,19.10
2018-05-08T09:02:37.108Z,19.10
2018-05-08T09:05:10.685Z,19.20
2018-05-08T09:07:44.250Z,19.20
2018-05-08T09:10:18.582Z,19.30
2018-05-08T09:12:52.213Z,19.20
2018-05-08T09:15:25.745Z,19.20
2018-05-08T09:17:59.308Z,19.30
2018-05-08T09:20:32.868Z,19.40
2018-05-08T09:23:06.483Z,19.40
2018-05-08T09:25:40.025Z,19.20
2018-05-08T09:28:13.582Z,19.40
2018-05-08T09:30:47.890Z,19.70
2018-05-08T09:33:21.675Z,19.70
2018-05-08T09:35:55.238Z,19.60
2018-05-08T09:38:28.776Z,19.60
2018-05-08T09:41:02.446Z,19.60
2018-05-08T09:43:36.052Z,19.90
2018-05-08T09:46:10.060Z,20.00
2018-05-08T09:48:43.860Z,20.00
2018-05-08T09:51:17.379Z,20.10
2018-05-08T09:53:50.944Z,20.00
2018-05-08T09:56:24.525Z,20.20
2018-05-08T09:58:59.031Z,20.30
2018-05-08T10:01:32.776Z,20.30
2018-05-08T10:04:07.115Z,20.10
2018-05-08T10:06:40.803Z,20.00
2018-05-08T10:09:14.354Z,20.00
2018-05-08T10:11:47.891Z,20.40
2018-05-08T10:14:21.464Z,20.50
2018-05-08T10:16:55.059Z,20.90
2018-05-08T10:19:28.648Z,20.80
2018-05-08T10:22:02.974Z,20.80
2018-05-08T10:24:36.694Z,20.70
2018-05-08T10:27:10.313Z,20.80
2018-05-08T10:29:43.845Z,20.80
2018-05-08T10:32:17.531Z,20.90
2018-05-08T10:34:51.353Z,20.90
2018-05-08T10:37:24.893Z,21.30
2018-05-08T10:39:58.460Z,21.40
2018-05-08T10:42:32.148Z,21.40
2018-05-08T10:45:05.717Z,21.40
2018-05-08T10:47:39.296Z,21.10
2018-05-08T10:50:12.891Z,21.10
2018-05-08T10:52:46.412Z,21.00
2018-05-08T10:55:20.100Z,21.20
2018-05-08T10:57:53.702Z,21.00
2018-05-08T11:00:27.200Z,21.00
2018-05-08T11:03:01.515Z,21.30
2018-05-08T11:05:35.090Z,21.30
2018-05-08T11:08:08.660Z,21.60
2018-05-08T11:10:42.220Z,21.50
2018-05-08T11:13:16.555Z,21.50
2018-05-08T11:15:50.258Z,21.50
2018-05-08T11:18:23.976Z,21.70
2018-05-08T11:20:57.543Z,21.80
2018-05-08T11:23:31.843Z,22.00
2018-05-08T11:26:05.980Z,21.90
2018-05-08T11:28:39.698Z,21.70
2018-05-08T11:31:13.266Z,21.60
2018-05-08T11:33:47.596Z,21.70
2018-05-08T11:36:21.260Z,21.70
2018-05-08T11:38:54.934Z,21.60
2018-05-08T11:41:28.473Z,22.00
2018-05-08T11:44:02.073Z,22.20
2018-05-08T11:46:35.732Z,22.10
2018-05-08T11:49:09.302Z,22.30
2018-05-08T11:51:42.827Z,22.30
2018-05-08T11:54:16.424Z,22.00
2018-05-08T11:56:50.723Z,22.20
2018-05-08T11:59:24.304Z,22.20
2018-05-08T12:01:58.619Z,22.40
2018-05-08T12:04:32.316Z,22.40
2018-05-08T12:07:06.081Z,22.50
2018-05-08T12:09:39.667Z,22.80
2018-05-08T12:12:13.406Z,22.80
2018-05-08T12:14:47.070Z,22.30
2018-05-08T12:17:20.744Z,22.30
2018-05-08T12:19:54.336Z,22.60
2018-05-08T12:22:28.667Z,22.30
2018-05-08T12:25:02.932Z,22.30
2018-05-08T12:27:36.693Z,22.30
2018-05-08T12:30:10.345Z,22.50
2018-05-08T12:32:43.924Z,22.40
2018-05-08T12:35:17.493Z,22.50
2018-05-08T12:37:51.075Z,22.80
2018-05-08T12:40:24.730Z,23.00
2018-05-08T12:42:58.276Z,23.10
2018-05-08T12:45:31.893Z,23.00
2018-05-08T12:48:05.474Z,23.00
2018-05-08T12:50:39.079Z,23.00
2018-05-08T12:53:12.683Z,23.10
2018-05-08T12:55:46.208Z,23.40
2018-05-08T12:58:20.609Z,23.10
2018-05-08T13:00:55.115Z,23.20
2018-05-08T13:03:28.736Z,23.10
2018-05-08T13:06:02.328Z,23.20
2018-05-08T13:08:35.940Z,23.20
2018-05-08T13:11:09.542Z,22.90
2018-05-08T13:13:43.120Z,22.80
2018-05-08T13:16:17.649Z,23.10
2018-05-08T13:18:51.416Z,23.00
2018-05-08T13:21:25.782Z,23.00
2018-05-08T13:23:59.388Z,22.90
2018-05-08T13:26:33.099Z,23.10
2018-05-08T13:29:06.686Z,23.20
2018-05-08T13:31:40.265Z,23.10
2018-05-08T13:34:14.014Z,23.00
2018-05-08T13:36:47.528Z,23.10
2018-05-08T13:39:21.176Z,23.00
2018-05-08T13:41:54.894Z,23.30
2018-05-08T13:44:28.386Z,23.50
2018-05-08T13:47:01.900Z,23.30
2018-05-08T13:49:35.756Z,23.10
2018-05-08T13:52:09.380Z,23.10
2018-05-08T13:54:42.998Z,23.00
2018-05-08T13:57:16.523Z,23.20
2018-05-08T13:59:50.025Z,23.70
2018-05-08T14:02:24.308Z,23.60
2018-05-08T14:04:57.810Z,23.50
2018-05-08T14:07:32.224Z,23.40
2018-05-08T14:10:05.825Z,23.30
2018-05-08T14:12:39.330Z,23.40
2018-05-08T14:15:12.905Z,23.40
2018-05-08T14:17:46.522Z,23.20
2018-05-08T14:20:20.118Z,23.10
2018-05-08T14:22:54.543Z,23.20
2018-05-08T14:25:28.379Z,23.10
2018-05-08T14:28:01.915Z,23.10
2018-05-08T14:30:36.381Z,23.20
2018-05-08T14:33:09.948Z,23.20
2018-05-08T14:35:43.492Z,23.00
2018-05-08T14:38:17.065Z,23.00
2018-05-08T14:40:51.596Z,23.10
2018-05-08T14:43:25.268Z,23.10
2018-05-08T14:45:58.831Z,23.20
2018-05-08T14:48:32.476Z,23.30
2018-05-08T14:51:06.077Z,23.30
2018-05-08T14:53:39.596Z,23.30
2018-05-08T14:56:13.221Z,23.30
2018-05-08T14:58:46.729Z,23.40
2018-05-08T15:01:20.266Z,23.30
2018-05-08T15:03:53.972Z,23.10
2018-05-08T15:06:28.326Z,23.30
2018-05-08T15:09:01.964Z,23.30
2018-05-08T15:11:35.606Z,23.20
2018-05-08T15:14:10.153Z,23.00
2018-05-08T15:16:43.855Z,23.00
2018-05-08T15:19:17.511Z,23.00
2018-05-08T15:21:51.135Z,23.20
2018-05-08T15:24:24.659Z,23.40
2018-05-08T15:26:58.287Z,23.30
2018-05-08T15:29:31.838Z,23.40
2018-05-08T15:32:05.637Z,23.20
2018-05-08T15:34:39.464Z,23.20
2018-05-08T15:37:12.966Z,23.10
2018-05-08T15:39:46.610Z,23.40
2018-05-08T15:42:20.265Z,23.30
2018-05-08T15:44:54.073Z,23.50
2018-05-08T15:47:28.385Z,23.20
2018-05-08T15:50:02.144Z,23.20
2018-05-08T15:52:36.429Z,23.40
2018-05-08T15:55:10.079Z,23.30
2018-05-08T15:57:43.535Z,23.40
2018-05-08T16:00:17.877Z,23.10
2018-05-08T16:02:51.527Z,23.10
2018-05-08T16:05:25.203Z,23.40
2018-05-08T16:07:59.651Z,23.70
2018-05-08T16:10:33.251Z,23.70
2018-05-08T16:13:06.941Z,23.40
2018-05-08T16:15:40.564Z,23.30
2018-05-08T16:18:14.340Z,23.20
2018-05-08T16:20:48.718Z,23.60
2018-05-08T16:23:22.188Z,23.60
2018-05-08T16:25:55.913Z,23.40
2018-05-08T16:28:29.399Z,24.00
2018-05-08T16:31:03.003Z,24.60
2018-05-08T16:33:36.840Z,25.10
2018-05-08T16:36:10.367Z,25.10
2018-05-08T16:38:43.910Z,25.30
2018-05-08T16:41:17.512Z,26.20
2018-05-08T16:43:51.184Z,26.30
2018-05-08T16:46:24.720Z,26.20
2018-05-08T16:48:58.328Z,26.30
2018-05-08T16:51:32.019Z,26.50
2018-05-08T16:54:05.765Z,26.60
2018-05-08T16:56:40.223Z,26.40
2018-05-08T16:59:13.793Z,26.40
2018-05-08T17:01:47.517Z,26.60
2018-05-08T17:04:22.065Z,25.70
2018-05-08T17:06:55.648Z,25.60
2018-05-08T17:09:29.217Z,26.10
2018-05-08T17:12:03.686Z,26.40
2018-05-08T17:14:37.293Z,26.40
2018-05-08T17:17:11.685Z,26.40
2018-05-08T17:19:45.267Z,26.40
2018-05-08T17:22:18.823Z,27.30
2018-05-08T17:24:52.460Z,28.00
2018-05-08T17:27:26.121Z,26.90
2018-05-08T17:30:00.508Z,26.60
2018-05-08T17:32:34.111Z,26.60
2018-05-08T17:35:07.723Z,25.90
2018-05-08T17:37:41.350Z,25.10
2018-05-08T17:40:15.860Z,23.90
2018-05-08T17:42:49.402Z,23.90
2018-05-08T17:45:23.024Z,23.50
2018-05-08T17:47:57.463Z,22.60
2018-05-08T17:50:31.183Z,22.60
2018-05-08T17:53:05.004Z,22.40
2018-05-08T17:55:39.488Z,22.30
2018-05-08T17:58:13.231Z,22.20
2018-05-08T18:00:46.797Z,22.00
2018-05-08T18:03:20.308Z,21.80
2018-05-08T18:05:53.951Z,21.90
2018-05-08T18:08:28.224Z,21.80
2018-05-08T18:11:01.791Z,21.80
2018-05-08T18:13:35.306Z,21.70
2018-05-08T18:16:08.813Z,21.50
2018-05-08T18:18:42.349Z,21.30
2018-05-08T18:21:15.920Z,21.20
2018-05-08T18:23:49.507Z,21.10
2018-05-08T18:26:23.028Z,20.70
2018-05-08T18:28:56.715Z,20.60
2018-05-08T18:31:30.326Z,20.50
2018-05-08T18:34:03.871Z,20.40
2018-05-08T18:36:37.446Z,20.30
2018-05-08T18:39:11.103Z,20.20
2018-05-08T18:41:44.654Z,20.20
2018-05-08T18:44:18.184Z,20.00
2018-05-08T18:46:51.716Z,20.00
2018-05-08T18:49:25.373Z,20.00
2018-05-08T18:51:58.895Z,20.00
2018-05-08T18:54:32.435Z,20.00
2018-05-08T18:57:06.014Z,19.80
2018-05-08T18:59:39.712Z,19.70
2018-05-08T19:02:13.226Z,19.70
2018-05-08T19:04:46.797Z,19.60
2018-05-08T19:07:20.407Z,19.40
2018-05-08T19:09:53.942Z,19.40
2018-05-08T19:12:27.523Z,19.30
2018-05-08T19:15:06.825Z,19.30
2018-05-08T19:17:41.243Z,19.10
2018-05-08T19:20:14.852Z,19.00
2018-05-08T19:22:48.453Z,19.20
2018-05-08T19:25:22.069Z,19.10
2018-05-08T19:28:01.291Z,19.00
2018-05-08T19:30:34.831Z,19.00
2018-05-08T19:33:08.411Z,19.10
2018-05-08T19:35:47.660Z,19.10
2018-05-08T19:38:22.155Z,19.30
2018-05-08T19:40:55.872Z,19.20
2018-05-08T19:43:29.433Z,19.30
2018-05-08T19:46:03.071Z,19.30
2018-05-08T19:48:36.751Z,19.30
2018-05-08T19:51:10.296Z,19.10
2018-05-08T19:53:43.951Z,19.10
2018-05-08T19:56:18.017Z,18.90
2018-05-08T19:58:51.603Z,18.70
2018-05-08T20:01:25.304Z,18.70
2018-05-08T20:03:58.859Z,18.70
2018-05-08T20:06:32.508Z,18.70
2018-05-08T20:09:06.141Z,18.70
2018-05-08T20:11:39.867Z,18.70
2018-05-08T20:14:13.616Z,18.70
2018-05-08T20:16:47.338Z,18.70
2018-05-08T20:19:21.092Z,18.60
2018-05-08T20:21:54.646Z,18.60
2018-05-08T20:24:28.399Z,18.60
2018-05-08T20:27:01.917Z,18.50
2018-05-08T20:29:35.512Z,18.20
2018-05-08T20:32:09.197Z,18.20
2018-05-08T20:34:42.787Z,17.90
2018-05-08T20:37:17.121Z,17.80
2018-05-08T20:39:50.829Z,17.80
2018-05-08T20:42:24.540Z,17.90
2018-05-08T20:44:58.115Z,18.00
2018-05-08T20:47:33.401Z,18.00
2018-05-08T20:50:07.187Z,18.10
2018-05-08T20:52:40.705Z,18.20
2018-05-08T20:55:14.263Z,18.10
2018-05-08T20:57:47.807Z,18.10
2018-05-08T21:00:21.364Z,18.00
2018-05-08T21:02:55.687Z,17.90
2018-05-08T21:05:29.207Z,17.80
2018-05-08T21:08:02.811Z,17.70
2018-05-08T21:10:37.122Z,17.50
2018-05-08T21:13:10.694Z,17.50
2018-05-08T21:15:44.244Z,17.20
2018-05-08T21:18:18.641Z,17.10
2018-05-08T21:20:52.235Z,17.10
2018-05-08T21:23:25.801Z,17.10
2018-05-08T21:26:00.150Z,17.10
2018-05-08T21:28:39.539Z,17.00
2018-05-08T21:31:14.190Z,17.10
2018-05-08T21:33:47.920Z,17.00
2018-05-08T21:36:22.239Z,16.90
2018-05-08T21:38:55.939Z,16.80
2018-05-08T21:41:29.438Z,16.80
2018-05-08T21:44:03.748Z,16.80
2018-05-08T21:46:37.588Z,16.80
2018-05-08T21:49:11.131Z,16.90
2018-05-08T21:51:44.720Z,16.80
2018-05-08T21:54:18.339Z,16.60
2018-05-08T21:56:51.851Z,16.60
2018-05-08T21:59:25.372Z,16.40
2018-05-08T22:01:58.938Z,16.20
2018-05-08T22:04:32.453Z,16.00
2018-05-08T22:07:05.969Z,15.80
2018-05-08T22:09:39.549Z,15.80
2018-05-08T22:12:13.106Z,15.70
2018-05-08T22:14:46.677Z,15.70
2018-05-08T22:17:20.307Z,15.60
2018-05-08T22:19:53.935Z,15.60
2018-05-08T22:22:28.280Z,15.60
2018-05-08T22:25:01.792Z,15.60
2018-05-08T22:27:36.085Z,15.40
2018-05-08T22:30:09.800Z,15.40
2018-05-08T22:32:44.258Z,15.30
2018-05-08T22:35:17.976Z,15.30
2018-05-08T22:37:52.315Z,15.40
2018-05-08T22:40:26.017Z,15.30
2018-05-08T22:42:59.620Z,15.40
2018-05-08T22:45:33.195Z,15.30
2018-05-08T22:48:06.827Z,15.30
2018-05-08T22:50:40.348Z,15.30
2018-05-08T22:53:14.649Z,15.40
2018-05-08T22:55:48.339Z,15.40
2018-05-08T22:58:21.890Z,15.40
2018-05-08T23:00:55.435Z,15.30
2018-05-08T23:03:29.771Z,15.30
2018-05-08T23:06:04.139Z,15.30
2018-05-08T23:08:38.403Z,14.70
2018-05-08T23:11:12.067Z,14.70
2018-05-08T23:13:45.591Z,14.60
2018-05-08T23:16:19.137Z,14.80
2018-05-08T23:18:52.695Z,14.70
2018-05-08T23:21:27.017Z,14.60
2018-05-08T23:24:00.731Z,14.60
2018-05-08T23:26:34.988Z,14.60
2018-05-08T23:29:08.736Z,14.60
2018-05-08T23:31:42.230Z,14.50
2018-05-08T23:34:15.765Z,14.50
2018-05-08T23:36:50.056Z,14.60
2018-05-08T23:39:23.731Z,14.60
2018-05-08T23:41:57.252Z,14.60
2018-05-08T23:44:30.770Z,14.50
2018-05-08T23:47:04.279Z,14.40
2018-05-08T23:49:37.864Z,14.40
2018-05-08T23:52:11.432Z,14.40
2018-05-08T23:54:45.879Z,14.00
2018-05-08T23:57:20.202Z,14.00
2018-05-08T23:59:53.858Z,14.00
